sensor_id;sensor_type;location;lat;lon;timestamp;P1;durP1;ratioP1;P2;durP2;ratioP2
58643;SDS011;44411;49.994;8.660;2022-11-28T15:52:16;37.53;;;26.17;;
58643;SDS011;44411;49.994;8.660;2022-11-28T15:54:47;29.23;;;22.45;;
58643;SDS011;44411;49.994;8.660;2022-11-28T15:57:16;34.28;;;24.95;;
58643;SDS011;44411;49.994;8.660;2022-11-28T15:59:43;37.17;;;27.48;;
58643;SDS011;44411;49.994;8.660;2022-11-28T16:02:17;35.30;;;26.17;;
58643;SDS011;44411;49.994;8.660;2022-11-28T16:05:12;31.60;;;24.80;;
58643;SDS011;44411;49.994;8.660;2022-11-28T16:07:45;32.67;;;23.35;;
58643;SDS011;44411;49.994;8.660;2022-11-28T16:10:19;33.45;;;26.33;;
58643;SDS011;44411;49.994;8.660;2022-11-28T16:12:49;38.72;;;24.83;;
58643;SDS011;44411;49.994;8.660;2022-11-28T16:15:22;34.15;;;24.63;;
58643;SDS011;44411;49.994;8.660;2022-11-28T16:17:54;33.53;;;25.48;;
58643;SDS011;44411;49.994;8.660;2022-11-28T16:20:27;31.30;;;23.58;;
58643;SDS011;44411;49.994;8.660;2022-11-28T16:22:57;33.13;;;24.15;;
58643;SDS011;44411;49.994;8.660;2022-11-28T16:25:25;34.03;;;24.90;;
58643;SDS011;44411;49.994;8.660;2022-11-28T16:27:51;33.58;;;24.70;;
58643;SDS011;44411;49.994;8.660;2022-11-28T16:38:45;32.10;;;25.55;;
58643;SDS011;44411;49.994;8.660;2022-11-28T16:43:41;33.45;;;23.95;;
58643;SDS011;44411;49.994;8.660;2022-11-28T16:49:40;34.20;;;24.92;;
58643;SDS011;44411;49.994;8.660;2022-11-28T16:54:51;34.00;;;25.45;;
58643;SDS011;44411;49.994;8.660;2022-11-28T16:57:18;35.22;;;24.73;;
58643;SDS011;44411;49.994;8.660;2022-11-28T16:59:45;34.15;;;24.75;;
58643;SDS011;44411;49.994;8.660;2022-11-28T17:02:15;38.58;;;27.10;;
58643;SDS011;44411;49.994;8.660;2022-11-28T17:04:42;35.90;;;25.70;;
58643;SDS011;44411;49.994;8.660;2022-11-28T17:07:09;40.03;;;26.17;;
58643;SDS011;44411;49.994;8.660;2022-11-28T17:09:37;33.58;;;23.98;;
58643;SDS011;44411;49.994;8.660;2022-11-28T17:12:04;34.67;;;26.42;;
58643;SDS011;44411;49.994;8.660;2022-11-28T17:14:42;44.13;;;30.58;;
58643;SDS011;44411;49.994;8.660;2022-11-28T17:17:12;43.40;;;27.88;;
58643;SDS011;44411;49.994;8.660;2022-11-28T17:19:38;36.08;;;25.92;;
58643;SDS011;44411;49.994;8.660;2022-11-28T17:22:04;39.47;;;27.50;;
58643;SDS011;44411;49.994;8.660;2022-11-28T17:24:33;39.08;;;26.67;;
58643;SDS011;44411;49.994;8.660;2022-11-28T17:27:00;41.42;;;26.88;;
58643;SDS011;44411;49.994;8.660;2022-11-28T17:29:25;40.00;;;26.27;;
58643;SDS011;44411;49.994;8.660;2022-11-28T17:31:52;35.60;;;24.48;;
58643;SDS011;44411;49.994;8.660;2022-11-28T17:34:25;33.65;;;25.27;;
58643;SDS011;44411;49.994;8.660;2022-11-28T17:36:52;38.28;;;26.83;;
58643;SDS011;44411;49.994;8.660;2022-11-28T17:39:17;39.83;;;26.27;;
58643;SDS011;44411;49.994;8.660;2022-11-28T17:41:44;37.95;;;28.85;;
58643;SDS011;44411;49.994;8.660;2022-11-28T17:46:42;39.50;;;29.00;;
58643;SDS011;44411;49.994;8.660;2022-11-28T17:49:07;41.15;;;29.08;;
58643;SDS011;44411;49.994;8.660;2022-11-28T17:51:33;35.08;;;26.25;;
58643;SDS011;44411;49.994;8.660;2022-11-28T17:53:58;38.55;;;28.63;;
58643;SDS011;44411;49.994;8.660;2022-11-28T17:56:24;39.58;;;27.92;;
58643;SDS011;44411;49.994;8.660;2022-11-28T17:58:49;39.85;;;27.88;;
58643;SDS011;44411;49.994;8.660;2022-11-28T18:03:42;40.55;;;29.10;;
58643;SDS011;44411;49.994;8.660;2022-11-28T18:06:17;41.67;;;28.92;;
58643;SDS011;44411;49.994;8.660;2022-11-28T18:08:44;40.38;;;28.13;;
58643;SDS011;44411;49.994;8.660;2022-11-28T18:11:11;41.03;;;28.63;;
58643;SDS011;44411;49.994;8.660;2022-11-28T18:13:37;43.30;;;29.60;;
58643;SDS011;44411;49.994;8.660;2022-11-28T18:16:04;43.08;;;29.17;;
58643;SDS011;44411;49.994;8.660;2022-11-28T18:18:30;41.83;;;29.27;;
58643;SDS011;44411;49.994;8.660;2022-11-28T18:20:56;36.80;;;27.20;;
58643;SDS011;44411;49.994;8.660;2022-11-28T18:23:21;45.55;;;28.88;;
58643;SDS011;44411;49.994;8.660;2022-11-28T18:25:47;40.50;;;27.92;;
58643;SDS011;44411;49.994;8.660;2022-11-28T18:28:13;39.90;;;28.55;;
58643;SDS011;44411;49.994;8.660;2022-11-28T18:30:42;39.45;;;26.80;;
58643;SDS011;44411;49.994;8.660;2022-11-28T18:33:09;38.70;;;27.90;;
58643;SDS011;44411;49.994;8.660;2022-11-28T18:35:35;47.10;;;32.75;;
58643;SDS011;44411;49.994;8.660;2022-11-28T18:38:02;64.82;;;45.20;;
58643;SDS011;44411;49.994;8.660;2022-11-28T18:40:27;57.25;;;40.67;;
58643;SDS011;44411;49.994;8.660;2022-11-28T18:42:53;53.08;;;39.05;;
58643;SDS011;44411;49.994;8.660;2022-11-28T18:45:18;52.15;;;40.22;;
58643;SDS011;44411;49.994;8.660;2022-11-28T18:47:44;51.05;;;37.60;;
58643;SDS011;44411;49.994;8.660;2022-11-28T18:50:09;51.33;;;36.38;;
58643;SDS011;44411;49.994;8.660;2022-11-28T18:52:34;51.88;;;35.97;;
58643;SDS011;44411;49.994;8.660;2022-11-28T18:55:00;53.58;;;41.90;;
58643;SDS011;44411;49.994;8.660;2022-11-28T18:57:25;57.83;;;40.60;;
58643;SDS011;44411;49.994;8.660;2022-11-28T18:59:55;50.33;;;37.10;;
58643;SDS011;44411;49.994;8.660;2022-11-28T19:02:21;51.53;;;35.10;;
58643;SDS011;44411;49.994;8.660;2022-11-28T19:04:47;49.05;;;36.30;;
58643;SDS011;44411;49.994;8.660;2022-11-28T19:07:12;48.20;;;36.42;;
58643;SDS011;44411;49.994;8.660;2022-11-28T19:09:38;53.47;;;38.45;;
58643;SDS011;44411;49.994;8.660;2022-11-28T19:12:04;50.40;;;37.20;;
58643;SDS011;44411;49.994;8.660;2022-11-28T19:14:30;51.80;;;37.33;;
58643;SDS011;44411;49.994;8.660;2022-11-28T19:16:56;52.58;;;37.53;;
58643;SDS011;44411;49.994;8.660;2022-11-28T19:19:21;54.22;;;38.47;;
58643;SDS011;44411;49.994;8.660;2022-11-28T19:21:48;47.63;;;35.97;;
58643;SDS011;44411;49.994;8.660;2022-11-28T19:24:13;44.38;;;33.28;;
58643;SDS011;44411;49.994;8.660;2022-11-28T19:26:39;51.72;;;34.90;;
58643;SDS011;44411;49.994;8.660;2022-11-28T19:29:05;48.83;;;33.33;;
58643;SDS011;44411;49.994;8.660;2022-11-28T19:31:31;48.58;;;33.95;;
58643;SDS011;44411;49.994;8.660;2022-11-28T19:34:09;48.38;;;35.20;;
58643;SDS011;44411;49.994;8.660;2022-11-28T19:36:43;50.58;;;37.53;;
58643;SDS011;44411;49.994;8.660;2022-11-28T19:39:14;53.50;;;36.67;;
58643;SDS011;44411;49.994;8.660;2022-11-28T19:41:41;51.90;;;36.58;;
58643;SDS011;44411;49.994;8.660;2022-11-28T19:44:12;56.15;;;40.38;;
58643;SDS011;44411;49.994;8.660;2022-11-28T19:46:38;47.28;;;35.20;;
58643;SDS011;44411;49.994;8.660;2022-11-28T19:49:04;51.78;;;37.75;;
58643;SDS011;44411;49.994;8.660;2022-11-28T19:51:31;52.33;;;38.15;;
58643;SDS011;44411;49.994;8.660;2022-11-28T19:53:57;54.72;;;38.42;;
58643;SDS011;44411;49.994;8.660;2022-11-28T19:56:23;57.28;;;40.72;;
58643;SDS011;44411;49.994;8.660;2022-11-28T19:58:48;56.28;;;38.95;;
58643;SDS011;44411;49.994;8.660;2022-11-28T20:01:19;56.00;;;38.63;;
58643;SDS011;44411;49.994;8.660;2022-11-28T20:03:46;55.65;;;36.50;;
58643;SDS011;44411;49.994;8.660;2022-11-28T20:06:13;56.28;;;38.88;;
58643;SDS011;44411;49.994;8.660;2022-11-28T20:08:43;64.18;;;42.45;;
58643;SDS011;44411;49.994;8.660;2022-11-28T20:11:16;62.90;;;39.00;;
58643;SDS011;44411;49.994;8.660;2022-11-28T20:13:43;50.92;;;32.00;;
58643;SDS011;44411;49.994;8.660;2022-11-28T20:16:10;44.70;;;31.38;;
58643;SDS011;44411;49.994;8.660;2022-11-28T20:18:37;40.03;;;28.77;;
58643;SDS011;44411;49.994;8.660;2022-11-28T20:21:04;35.10;;;24.65;;
58643;SDS011;44411;49.994;8.660;2022-11-28T20:23:31;36.20;;;26.38;;
58643;SDS011;44411;49.994;8.660;2022-11-28T20:26:01;38.92;;;26.95;;
58643;SDS011;44411;49.994;8.660;2022-11-28T20:28:30;32.97;;;23.58;;
58643;SDS011;44411;49.994;8.660;2022-11-28T20:30:57;34.63;;;25.23;;
58643;SDS011;44411;49.994;8.660;2022-11-28T20:33:23;36.90;;;25.33;;
58643;SDS011;44411;49.994;8.660;2022-11-28T20:35:48;36.80;;;25.42;;
58643;SDS011;44411;49.994;8.660;2022-11-28T20:38:13;40.63;;;26.02;;
58643;SDS011;44411;49.994;8.660;2022-11-28T20:40:39;36.20;;;26.50;;
58643;SDS011;44411;49.994;8.660;2022-11-28T20:43:04;37.72;;;27.20;;
58643;SDS011;44411;49.994;8.660;2022-11-28T20:45:30;42.10;;;28.73;;
58643;SDS011;44411;49.994;8.660;2022-11-28T20:47:56;44.25;;;29.88;;
58643;SDS011;44411;49.994;8.660;2022-11-28T20:50:21;43.25;;;30.48;;
58643;SDS011;44411;49.994;8.660;2022-11-28T20:52:47;51.83;;;33.25;;
58643;SDS011;44411;49.994;8.660;2022-11-28T20:55:12;48.97;;;34.28;;
58643;SDS011;44411;49.994;8.660;2022-11-28T20:57:38;49.17;;;33.72;;
58643;SDS011;44411;49.994;8.660;2022-11-28T21:00:03;44.45;;;31.23;;
58643;SDS011;44411;49.994;8.660;2022-11-28T21:02:29;48.80;;;33.50;;
58643;SDS011;44411;49.994;8.660;2022-11-28T21:04:54;50.92;;;34.20;;
58643;SDS011;44411;49.994;8.660;2022-11-28T21:07:20;51.30;;;35.15;;
58643;SDS011;44411;49.994;8.660;2022-11-28T21:09:46;43.47;;;31.23;;
58643;SDS011;44411;49.994;8.660;2022-11-28T21:12:11;48.30;;;31.77;;
58643;SDS011;44411;49.994;8.660;2022-11-28T21:14:36;52.75;;;34.75;;
58643;SDS011;44411;49.994;8.660;2022-11-28T21:17:02;50.97;;;34.13;;
58643;SDS011;44411;49.994;8.660;2022-11-28T21:19:27;54.28;;;35.13;;
58643;SDS011;44411;49.994;8.660;2022-11-28T21:21:54;48.30;;;33.90;;
58643;SDS011;44411;49.994;8.660;2022-11-28T21:24:19;45.40;;;32.95;;
58643;SDS011;44411;49.994;8.660;2022-11-28T21:26:45;50.85;;;34.08;;
58643;SDS011;44411;49.994;8.660;2022-11-28T21:29:11;48.00;;;34.50;;
58643;SDS011;44411;49.994;8.660;2022-11-28T21:31:38;50.88;;;35.17;;
58643;SDS011;44411;49.994;8.660;2022-11-28T21:36:31;48.95;;;32.67;;
58643;SDS011;44411;49.994;8.660;2022-11-28T21:38:58;48.80;;;33.92;;
58643;SDS011;44411;49.994;8.660;2022-11-28T21:41:28;48.95;;;33.42;;
58643;SDS011;44411;49.994;8.660;2022-11-28T21:43:56;47.72;;;33.65;;
58643;SDS011;44411;49.994;8.660;2022-11-28T21:46:22;53.28;;;33.88;;
58643;SDS011;44411;49.994;8.660;2022-11-28T21:48:48;46.85;;;33.25;;
58643;SDS011;44411;49.994;8.660;2022-11-28T21:51:14;49.47;;;34.20;;
58643;SDS011;44411;49.994;8.660;2022-11-28T21:53:41;46.40;;;33.92;;
58643;SDS011;44411;49.994;8.660;2022-11-28T21:56:07;46.33;;;33.75;;
58643;SDS011;44411;49.994;8.660;2022-11-28T21:58:33;45.30;;;32.92;;
58643;SDS011;44411;49.994;8.660;2022-11-28T22:00:59;45.15;;;31.83;;
58643;SDS011;44411;49.994;8.660;2022-11-28T22:03:26;51.05;;;34.42;;
58643;SDS011;44411;49.994;8.660;2022-11-28T22:05:58;49.83;;;35.72;;
58643;SDS011;44411;49.994;8.660;2022-11-28T22:08:24;55.50;;;34.13;;
58643;SDS011;44411;49.994;8.660;2022-11-28T22:10:49;56.38;;;38.83;;
58643;SDS011;44411;49.994;8.660;2022-11-28T22:13:15;57.47;;;35.92;;
58643;SDS011;44411;49.994;8.660;2022-11-28T22:15:41;52.35;;;36.38;;
58643;SDS011;44411;49.994;8.660;2022-11-28T22:18:07;59.22;;;38.45;;
58643;SDS011;44411;49.994;8.660;2022-11-28T22:20:33;52.05;;;36.42;;
58643;SDS011;44411;49.994;8.660;2022-11-28T22:22:59;57.83;;;37.80;;
58643;SDS011;44411;49.994;8.660;2022-11-28T22:25:24;55.10;;;37.72;;
58643;SDS011;44411;49.994;8.660;2022-11-28T22:27:49;54.50;;;37.50;;
58643;SDS011;44411;49.994;8.660;2022-11-28T22:30:14;55.70;;;37.10;;
58643;SDS011;44411;49.994;8.660;2022-11-28T22:32:40;58.03;;;38.35;;
58643;SDS011;44411;49.994;8.660;2022-11-28T22:35:05;53.42;;;36.90;;
58643;SDS011;44411;49.994;8.660;2022-11-28T22:37:33;55.08;;;37.55;;
58643;SDS011;44411;49.994;8.660;2022-11-28T22:39:59;52.35;;;34.65;;
58643;SDS011;44411;49.994;8.660;2022-11-28T22:42:24;53.67;;;35.75;;
58643;SDS011;44411;49.994;8.660;2022-11-28T22:44:49;59.40;;;37.42;;
58643;SDS011;44411;49.994;8.660;2022-11-28T22:47:15;53.83;;;35.53;;
58643;SDS011;44411;49.994;8.660;2022-11-28T22:49:40;50.65;;;34.85;;
58643;SDS011;44411;49.994;8.660;2022-11-28T22:52:06;56.67;;;35.08;;
58643;SDS011;44411;49.994;8.660;2022-11-28T22:54:31;53.72;;;35.90;;
58643;SDS011;44411;49.994;8.660;2022-11-28T22:56:57;53.55;;;34.28;;
58643;SDS011;44411;49.994;8.660;2022-11-28T22:59:22;49.03;;;33.38;;
58643;SDS011;44411;49.994;8.660;2022-11-28T23:01:47;52.22;;;35.88;;
58643;SDS011;44411;49.994;8.660;2022-11-28T23:04:13;54.63;;;36.20;;
58643;SDS011;44411;49.994;8.660;2022-11-28T23:06:38;52.65;;;36.83;;
58643;SDS011;44411;49.994;8.660;2022-11-28T23:09:04;52.42;;;35.60;;
58643;SDS011;44411;49.994;8.660;2022-11-28T23:11:31;57.20;;;35.30;;
58643;SDS011;44411;49.994;8.660;2022-11-28T23:13:58;55.85;;;36.15;;
58643;SDS011;44411;49.994;8.660;2022-11-28T23:16:28;54.20;;;36.00;;
58643;SDS011;44411;49.994;8.660;2022-11-28T23:18:57;49.05;;;33.83;;
58643;SDS011;44411;49.994;8.660;2022-11-28T23:21:24;50.45;;;33.63;;
58643;SDS011;44411;49.994;8.660;2022-11-28T23:23:50;51.30;;;31.40;;
58643;SDS011;44411;49.994;8.660;2022-11-28T23:26:19;45.63;;;30.35;;
58643;SDS011;44411;49.994;8.660;2022-11-28T23:28:47;43.17;;;29.58;;
58643;SDS011;44411;49.994;8.660;2022-11-28T23:31:17;44.65;;;29.83;;
58643;SDS011;44411;49.994;8.660;2022-11-28T23:33:43;45.15;;;30.17;;
58643;SDS011;44411;49.994;8.660;2022-11-28T23:36:16;41.08;;;29.40;;
58643;SDS011;44411;49.994;8.660;2022-11-28T23:38:42;44.55;;;28.50;;
58643;SDS011;44411;49.994;8.660;2022-11-28T23:41:08;45.10;;;30.13;;
58643;SDS011;44411;49.994;8.660;2022-11-28T23:43:34;43.08;;;30.42;;
58643;SDS011;44411;49.994;8.660;2022-11-28T23:45:59;45.88;;;30.85;;
58643;SDS011;44411;49.994;8.660;2022-11-28T23:48:24;44.38;;;30.85;;
58643;SDS011;44411;49.994;8.660;2022-11-28T23:50:50;40.50;;;29.10;;
58643;SDS011;44411;49.994;8.660;2022-11-28T23:53:15;44.13;;;30.08;;
58643;SDS011;44411;49.994;8.660;2022-11-28T23:55:41;44.03;;;28.65;;
58643;SDS011;44411;49.994;8.660;2022-11-28T23:58:06;44.22;;;29.90;;
